Time;durP1;ratioP1;P1;durP2;ratioP2;P2;SDS_P1;SDS_P2;PMS_P1;PMS_P2;Temp;Humidity;BMP_temperature;BMP_pressure;BME280_temperature;BME280_humidity;BME280_pressure;Samples;Min_cycle;Max_cycle;Signal;HPM_P1;HPM_P2
2023/08/14 00:01:03;;;;;;;7.68;5.10;;;21.10;83.40;;;;;;5016550;28;20036;-70
2023/08/14 00:03:29;;;;;;;7.53;4.97;;;21.00;83.40;;;;;;5016601;28;20121;-71
2023/08/14 00:05:54;;;;;;;7.35;4.70;;;21.00;83.60;;;;;;5016170;28;20524;-70
2023/08/14 00:08:21;;;;;;;6.50;4.88;;;21.00;83.80;;;;;;5016384;28;20476;-70
2023/08/14 00:10:46;;;;;;;8.35;4.90;;;20.90;83.90;;;;;;5016407;28;20034;-71
2023/08/14 00:13:12;;;;;;;6.05;4.88;;;20.90;84.10;;;;;;5016254;28;20153;-70
2023/08/14 00:15:39;;;;;;;7.65;4.60;;;20.90;84.20;;;;;;5016290;28;20029;-70
2023/08/14 00:18:05;;;;;;;6.07;5.13;;;20.90;85.00;;;;;;5016365;28;20038;-71
2023/08/14 00:20:31;;;;;;;6.50;5.00;;;21.00;84.20;;;;;;5016238;28;20109;-71
2023/08/14 00:22:57;;;;;;;6.82;4.53;;;21.00;83.90;;;;;;5016097;28;20105;-70
2023/08/14 00:25:22;;;;;;;9.20;5.40;;;21.00;83.80;;;;;;5016139;28;20066;-70
2023/08/14 00:27:48;;;;;;;5.72;4.38;;;21.00;83.90;;;;;;5016108;28;20029;-71
2023/08/14 00:30:14;;;;;;;6.40;4.55;;;21.00;83.90;;;;;;5015966;28;20033;-71
2023/08/14 00:32:39;;;;;;;10.00;4.68;;;21.10;83.70;;;;;;5015882;28;20065;-70
2023/08/14 00:35:05;;;;;;;8.38;4.80;;;21.10;83.60;;;;;;5016024;28;20130;-71
2023/08/14 00:37:45;;;;;;;7.05;4.75;;;21.00;83.70;;;;;;5016221;28;20379;-71
2023/08/14 00:40:12;;;;;;;9.27;5.35;;;21.00;83.90;;;;;;5016094;28;20030;-71
2023/08/14 00:42:39;;;;;;;6.78;5.13;;;20.90;84.00;;;;;;5015802;28;20030;-71
2023/08/14 00:45:06;;;;;;;6.15;4.80;;;21.00;84.00;;;;;;5015747;28;20026;-70
2023/08/14 00:47:35;;;;;;;6.00;4.70;;;21.00;83.60;;;;;;5015642;28;20479;-71
2023/08/14 00:50:06;;;;;;;7.80;5.07;;;21.10;83.80;;;;;;5015337;28;20505;-71
2023/08/14 00:52:34;;;;;;;9.25;5.45;;;21.10;83.70;;;;;;5015528;28;20040;-70
2023/08/14 00:55:02;;;;;;;9.45;6.15;;;21.20;84.50;;;;;;5015422;28;20030;-70
2023/08/14 00:57:29;;;;;;;10.27;6.13;;;21.10;85.30;;;;;;5015597;28;20029;-70
2023/08/14 00:59:56;;;;;;;11.20;6.65;;;21.00;85.90;;;;;;5032371;28;20163;-70
2023/08/14 01:02:25;;;;;;;9.90;6.97;;;21.00;86.30;;;;;;5034845;28;20639;-72
2023/08/14 01:04:51;;;;;;;13.25;7.57;;;21.00;86.90;;;;;;5035066;28;20455;-70
2023/08/14 01:07:17;;;;;;;11.05;6.03;;;21.00;88.40;;;;;;5035181;28;20018;-71
2023/08/14 01:09:43;;;;;;;8.95;5.20;;;20.90;88.00;;;;;;5035074;28;20025;-71
2023/08/14 01:12:16;;;;;;;10.77;5.53;;;20.90;87.40;;;;;;5034847;28;20114;-71
2023/08/14 01:14:43;;;;;;;7.50;5.63;;;21.00;87.70;;;;;;5027338;28;20029;-71
2023/08/14 01:17:13;;;;;;;6.75;4.85;;;20.80;87.60;;;;;;5016915;28;20025;-71
2023/08/14 01:19:41;;;;;;;6.10;5.28;;;20.80;87.60;;;;;;5026873;28;20017;-70
2023/08/14 01:22:10;;;;;;;7.53;4.90;;;20.80;88.00;;;;;;5034655;28;20116;-71
2023/08/14 01:24:45;;;;;;;5.03;4.53;;;20.80;88.40;;;;;;5034700;28;20027;-70
2023/08/14 01:27:11;;;;;;;;;;;20.80;88.20;;;;;;5035629;28;20018;-72
2023/08/14 01:29:38;;;;;;;5.78;4.20;;;20.90;88.00;;;;;;5034528;28;19905;-70
2023/08/14 01:32:03;;;;;;;5.53;4.05;;;20.90;87.80;;;;;;5034492;28;20084;-71
2023/08/14 01:34:29;;;;;;;6.25;3.42;;;20.90;87.40;;;;;;5034484;28;20079;-71
2023/08/14 01:37:06;;;;;;;5.47;4.30;;;20.90;87.10;;;;;;5034561;28;20104;-71
2023/08/14 01:39:43;;;;;;;5.85;3.83;;;20.90;87.30;;;;;;5034463;28;20348;-71
2023/08/14 01:42:33;;;;;;;4.07;3.67;;;20.90;87.00;;;;;;5034264;28;20028;-71
2023/08/14 01:45:09;;;;;;;3.45;3.15;;;20.90;86.70;;;;;;5034365;28;20032;-71
2023/08/14 01:47:36;;;;;;;5.75;3.97;;;20.80;86.80;;;;;;5034063;28;20036;-70
2023/08/14 01:50:02;;;;;;;5.72;4.30;;;20.80;87.30;;;;;;5034189;28;20363;-71
2023/08/14 01:52:28;;;;;;;8.20;4.03;;;20.80;87.20;;;;;;5034100;28;20042;-71
2023/08/14 01:55:00;;;;;;;6.72;3.90;;;20.80;86.90;;;;;;5016438;28;20099;-71
2023/08/14 01:57:25;;;;;;;5.93;4.30;;;20.80;86.90;;;;;;5034012;28;20079;-70
2023/08/14 01:59:51;;;;;;;8.90;5.05;;;20.80;86.90;;;;;;5034075;28;20033;-70
2023/08/14 02:02:16;;;;;;;7.55;4.70;;;20.80;88.20;;;;;;5034073;28;20029;-71
2023/08/14 02:04:42;;;;;;;5.25;4.75;;;20.70;87.70;;;;;;5033708;28;20129;-71
2023/08/14 02:07:10;;;;;;;5.55;4.50;;;20.70;87.90;;;;;;5033803;28;20029;-70
2023/08/14 02:09:37;;;;;;;6.43;5.07;;;20.70;88.10;;;;;;5033816;28;20083;-72
2023/08/14 02:12:03;;;;;;;6.65;5.53;;;20.70;88.40;;;;;;5032802;28;20029;-71
2023/08/14 02:14:29;;;;;;;9.27;5.50;;;20.70;88.40;;;;;;5033763;28;20022;-71
2023/08/14 02:16:54;;;;;;;9.15;6.25;;;20.60;88.40;;;;;;5033885;28;20021;-70
2023/08/14 02:19:20;;;;;;;9.05;6.28;;;20.50;89.10;;;;;;5033763;28;20087;-71
2023/08/14 02:21:45;;;;;;;10.90;6.68;;;20.50;89.50;;;;;;5033758;28;20109;-71
2023/08/14 02:24:11;;;;;;;9.15;6.47;;;20.50;89.70;;;;;;5033780;28;20026;-71
2023/08/14 02:26:37;;;;;;;8.43;6.40;;;20.40;89.90;;;;;;5033553;28;20462;-71
2023/08/14 02:29:03;;;;;;;10.90;7.10;;;20.40;90.10;;;;;;5033506;28;20065;-71
2023/08/14 02:31:29;;;;;;;9.70;6.45;;;20.30;90.30;;;;;;5033437;28;20048;-71
2023/08/14 02:33:59;;;;;;;12.25;6.57;;;20.40;90.30;;;;;;5033666;28;20474;-71
2023/08/14 02:36:25;;;;;;;10.00;5.82;;;20.40;90.20;;;;;;5033458;28;20029;-70
2023/08/14 02:38:52;;;;;;;13.32;6.70;;;20.40;90.20;;;;;;5033448;28;20489;-71
2023/08/14 02:41:17;;;;;;;9.52;6.43;;;20.40;90.20;;;;;;5033486;28;20125;-71
2023/08/14 02:43:43;;;;;;;7.80;5.75;;;20.40;90.00;;;;;;5033302;28;20455;-71
2023/08/14 02:46:08;;;;;;;7.53;5.85;;;20.30;90.30;;;;;;5015559;28;20017;-71
2023/08/14 02:48:34;;;;;;;6.15;5.57;;;20.30;90.00;;;;;;5033293;28;20030;-72
2023/08/14 02:51:00;;;;;;;6.65;5.65;;;20.30;90.00;;;;;;5033172;28;20462;-71
2023/08/14 02:53:26;;;;;;;10.02;5.30;;;20.30;90.10;;;;;;5033069;28;20394;-70
2023/08/14 02:55:52;;;;;;;7.95;5.88;;;20.20;89.60;;;;;;5015598;28;20021;-72
2023/08/14 02:58:18;;;;;;;7.93;6.20;;;20.20;89.80;;;;;;5033048;28;20036;-71
2023/08/14 03:00:48;;;;;;;7.75;5.80;;;20.20;89.80;;;;;;5032933;28;20030;-70
2023/08/14 03:03:13;;;;;;;9.25;6.10;;;20.10;90.10;;;;;;5032862;28;20033;-70
2023/08/14 03:05:40;;;;;;;9.65;6.40;;;20.10;90.30;;;;;;5032756;28;20402;-71
2023/08/14 03:08:06;;;;;;;7.22;5.88;;;20.10;90.20;;;;;;5032951;28;20028;-70
2023/08/14 03:10:31;;;;;;;7.03;5.35;;;20.10;90.20;;;;;;5032944;28;20029;-70
2023/08/14 03:12:57;;;;;;;8.20;5.78;;;20.10;90.10;;;;;;5032904;28;20100;-70
2023/08/14 03:15:23;;;;;;;8.65;5.97;;;20.10;90.20;;;;;;5032787;28;20026;-70
2023/08/14 03:17:48;;;;;;;8.68;6.18;;;20.00;90.20;;;;;;5032794;28;20441;-70
2023/08/14 03:20:15;;;;;;;8.73;5.95;;;20.00;90.20;;;;;;5033010;28;20026;-70
2023/08/14 03:22:40;;;;;;;8.73;6.50;;;20.00;90.40;;;;;;5032526;28;20058;-70
2023/08/14 03:25:06;;;;;;;9.90;6.15;;;19.90;90.50;;;;;;5032696;28;20056;-70
2023/08/14 03:27:32;;;;;;;6.18;5.57;;;19.90;90.70;;;;;;5032746;28;20025;-70
2023/08/14 03:29:57;;;;;;;8.57;5.80;;;19.90;90.80;;;;;;5032701;28;20048;-71
2023/08/14 03:32:23;;;;;;;8.30;5.78;;;19.80;90.90;;;;;;5032659;28;20516;-71
2023/08/14 03:34:49;;;;;;;8.30;5.38;;;19.80;90.90;;;;;;5032661;28;20057;-71
2023/08/14 03:37:14;;;;;;;12.23;5.57;;;19.80;90.70;;;;;;5032757;28;20022;-71
2023/08/14 03:39:40;;;;;;;7.20;5.03;;;19.70;90.80;;;;;;5032589;28;20025;-71
2023/08/14 03:42:06;;;;;;;9.15;4.88;;;19.80;90.90;;;;;;5014989;28;20448;-71
2023/08/14 03:44:31;;;;;;;7.15;4.63;;;19.80;90.70;;;;;;5032470;28;20030;-71
2023/08/14 03:46:57;;;;;;;4.63;4.22;;;19.70;90.50;;;;;;5032367;28;20037;-71
2023/08/14 03:49:22;;;;;;;6.25;4.30;;;19.70;90.10;;;;;;5032374;28;20061;-71
2023/08/14 03:51:48;;;;;;;4.50;4.10;;;19.80;89.60;;;;;;5032301;28;20037;-71
2023/08/14 03:54:14;;;;;;;5.50;4.30;;;19.60;89.60;;;;;;5032298;28;20115;-71
2023/08/14 03:56:39;;;;;;;8.48;4.50;;;19.70;89.90;;;;;;5014675;28;20033;-71
2023/08/14 03:59:05;;;;;;;6.38;4.43;;;19.60;89.90;;;;;;5032346;28;20032;-71
2023/08/14 04:01:31;;;;;;;6.47;4.40;;;19.70;90.10;;;;;;5032287;28;20018;-71
2023/08/14 04:03:57;;;;;;;6.35;4.70;;;19.70;90.00;;;;;;5032223;28;20377;-72
2023/08/14 04:06:22;;;;;;;7.13;4.40;;;19.70;90.00;;;;;;5032273;28;20500;-71
2023/08/14 04:08:49;;;;;;;5.50;4.50;;;19.60;90.00;;;;;;5032337;28;20400;-71
2023/08/14 04:11:14;;;;;;;6.28;4.45;;;19.60;90.00;;;;;;5032323;28;20100;-71
2023/08/14 04:13:40;;;;;;;6.05;4.07;;;19.60;90.00;;;;;;5032244;28;20047;-71
2023/08/14 04:16:05;;;;;;;7.20;4.05;;;19.60;89.80;;;;;;5032209;28;20100;-71
2023/08/14 04:18:31;;;;;;;6.35;3.70;;;19.70;89.60;;;;;;5032250;28;20449;-70
2023/08/14 04:20:58;;;;;;;6.82;3.97;;;19.60;89.30;;;;;;5032395;28;20104;-72
2023/08/14 04:23:25;;;;;;;6.53;4.35;;;19.50;89.50;;;;;;5032517;28;20026;-71
2023/08/14 04:25:51;;;;;;;5.93;4.45;;;19.50;89.40;;;;;;5032447;28;20017;-71
2023/08/14 04:28:17;;;;;;;5.82;4.15;;;19.50;89.60;;;;;;5032374;28;20470;-71
2023/08/14 04:30:42;;;;;;;6.65;4.18;;;19.40;89.80;;;;;;5032525;28;20021;-71
2023/08/14 04:33:08;;;;;;;7.05;4.53;;;19.40;90.00;;;;;;5032136;28;20096;-71
2023/08/14 04:35:34;;;;;;;6.20;4.30;;;19.40;90.10;;;;;;5034287;28;20022;-70
2023/08/14 04:37:59;;;;;;;6.10;4.15;;;19.30;90.10;;;;;;5035689;28;20386;-71
2023/08/14 04:40:25;;;;;;;7.13;4.57;;;19.40;89.90;;;;;;5035738;28;20094;-71
2023/08/14 04:42:51;;;;;;;3.78;3.47;;;19.30;90.00;;;;;;5035622;28;20021;-71
2023/08/14 04:45:16;;;;;;;5.05;4.10;;;19.40;89.90;;;;;;5035554;28;20025;-71
2023/08/14 04:47:42;;;;;;;6.18;3.72;;;19.40;90.10;;;;;;5035581;28;20097;-72
2023/08/14 04:50:08;;;;;;;4.80;3.40;;;19.50;90.20;;;;;;5035623;28;20056;-71
2023/08/14 04:52:33;;;;;;;5.25;3.55;;;19.50;90.00;;;;;;5035402;28;20037;-71
2023/08/14 04:54:59;;;;;;;7.00;3.60;;;19.60;89.60;;;;;;5035464;28;20101;-71
2023/08/14 04:57:24;;;;;;;4.82;4.07;;;19.60;89.50;;;;;;5035457;28;20032;-71
2023/08/14 04:59:50;;;;;;;6.43;4.20;;;19.60;89.40;;;;;;5035237;28;20433;-71
2023/08/14 05:02:15;;;;;;;5.82;4.03;;;19.70;89.70;;;;;;5035180;28;20076;-71
2023/08/14 05:04:41;;;;;;;6.45;4.28;;;19.70;89.70;;;;;;5034960;28;20413;-71
2023/08/14 05:07:07;;;;;;;7.55;4.07;;;19.70;89.40;;;;;;5035172;28;20493;-70
2023/08/14 05:09:32;;;;;;;5.53;4.10;;;19.70;89.20;;;;;;5035039;28;20034;-70
2023/08/14 05:11:58;;;;;;;6.68;4.60;;;19.70;89.30;;;;;;5035151;28;20033;-70
2023/08/14 05:14:24;;;;;;;9.35;4.68;;;19.70;89.30;;;;;;5034901;28;20036;-71
2023/08/14 05:16:50;;;;;;;5.68;4.25;;;19.80;90.10;;;;;;5034751;28;20026;-71
2023/08/14 05:19:15;;;;;;;4.35;3.92;;;19.80;89.30;;;;;;5034900;28;20060;-71
2023/08/14 05:21:41;;;;;;;7.97;4.50;;;19.90;89.00;;;;;;5034853;28;20065;-71
2023/08/14 05:24:07;;;;;;;3.58;3.28;;;20.10;88.70;;;;;;5034987;28;20025;-71
2023/08/14 05:26:32;;;;;;;4.25;3.85;;;20.10;88.30;;;;;;5034825;28;20029;-71
2023/08/14 05:28:58;;;;;;;4.32;3.28;;;20.20;87.70;;;;;;5034547;28;20029;-71
2023/08/14 05:31:24;;;;;;;6.25;3.70;;;20.10;87.20;;;;;;5034692;28;20021;-71
2023/08/14 05:33:49;;;;;;;6.15;3.75;;;20.10;87.00;;;;;;5034636;28;20112;-71
2023/08/14 05:36:15;;;;;;;6.20;4.30;;;20.00;87.60;;;;;;5034654;28;20022;-71
2023/08/14 05:38:40;;;;;;;4.13;3.72;;;20.00;87.80;;;;;;5034685;28;20033;-70
2023/08/14 05:41:06;;;;;;;4.13;3.70;;;19.90;88.10;;;;;;5034378;28;20030;-71
2023/08/14 05:43:31;;;;;;;7.00;3.95;;;19.90;88.20;;;;;;5034425;28;20080;-71
2023/08/14 05:45:57;;;;;;;7.63;4.35;;;19.90;88.20;;;;;;5034247;28;20030;-70
2023/08/14 05:48:22;;;;;;;4.72;3.88;;;20.00;88.30;;;;;;5034381;28;20029;-71
2023/08/14 05:50:51;;;;;;;5.03;3.88;;;20.00;88.10;;;;;;5034380;28;20032;-71
2023/08/14 05:53:17;;;;;;;5.22;4.28;;;20.10;88.00;;;;;;5034086;28;20088;-71
2023/08/14 05:55:42;;;;;;;5.97;4.57;;;20.00;87.90;;;;;;5034534;28;20021;-71
2023/08/14 05:58:08;;;;;;;6.13;5.15;;;20.10;88.10;;;;;;5034093;28;20448;-70
2023/08/14 06:00:35;;;;;;;6.20;4.40;;;20.10;88.20;;;;;;5034013;28;20410;-71
2023/08/14 06:03:01;;;;;;;5.78;4.68;;;20.30;88.00;;;;;;5033646;28;20049;-71
2023/08/14 06:05:27;;;;;;;5.03;4.40;;;20.40;87.70;;;;;;5033528;28;20127;-72
2023/08/14 06:07:54;;;;;;;4.55;4.00;;;20.40;87.40;;;;;;5033865;28;20025;-71
2023/08/14 06:10:20;;;;;;;5.38;4.55;;;20.50;87.40;;;;;;5033928;28;20482;-71
2023/08/14 06:12:46;;;;;;;5.85;4.43;;;20.60;86.90;;;;;;5033774;28;20100;-71
2023/08/14 06:15:12;;;;;;;6.45;5.00;;;20.80;86.60;;;;;;5033871;28;20021;-70
2023/08/14 06:17:38;;;;;;;6.82;4.75;;;20.80;86.20;;;;;;5033862;28;20104;-70
2023/08/14 06:20:04;;;;;;;9.50;4.57;;;21.00;86.00;;;;;;5016051;28;20049;-71
2023/08/14 06:22:30;;;;;;;6.53;5.00;;;21.10;85.70;;;;;;5033750;28;20474;-71
2023/08/14 06:24:55;;;;;;;5.30;4.40;;;21.20;85.40;;;;;;5033766;28;20033;-71
2023/08/14 06:27:21;;;;;;;7.68;4.82;;;21.40;85.30;;;;;;5033562;28;20080;-72
2023/08/14 06:29:47;;;;;;;5.90;4.20;;;21.50;84.90;;;;;;5033551;28;20355;-71
2023/08/14 06:32:12;;;;;;;4.63;4.07;;;21.60;84.10;;;;;;5015698;28;20087;-69
2023/08/14 06:34:38;;;;;;;4.40;3.78;;;21.70;83.80;;;;;;5033478;28;20068;-73
2023/08/14 06:37:04;;;;;;;6.47;4.68;;;21.80;83.60;;;;;;5033693;28;20049;-71
2023/08/14 06:39:30;;;;;;;6.32;4.50;;;22.00;83.00;;;;;;5033131;28;20034;-71
2023/08/14 06:41:55;;;;;;;6.93;4.47;;;22.10;82.70;;;;;;5033001;28;20017;-71
2023/08/14 06:44:21;;;;;;;6.25;4.47;;;22.20;82.70;;;;;;5033190;28;20068;-71
2023/08/14 06:46:47;;;;;;;4.82;4.30;;;22.20;82.50;;;;;;5033048;28;20028;-71
2023/08/14 06:49:12;;;;;;;5.70;4.30;;;22.20;82.20;;;;;;5033076;28;20032;-72
2023/08/14 06:51:38;;;;;;;8.27;4.40;;;22.40;82.10;;;;;;5033111;28;20136;-71
2023/08/14 06:54:05;;;;;;;9.10;4.32;;;22.40;81.50;;;;;;5032912;28;20479;-72
2023/08/14 06:56:31;;;;;;;8.23;4.72;;;22.50;81.20;;;;;;5032957;28;20037;-71
2023/08/14 06:58:56;;;;;;;7.47;4.20;;;22.60;81.00;;;;;;5032439;28;20030;-73
2023/08/14 07:01:22;;;;;;;5.82;4.32;;;22.60;81.40;;;;;;5032888;28;20032;-72
2023/08/14 07:03:48;;;;;;;5.68;4.15;;;22.60;81.20;;;;;;5033088;28;20028;-71
2023/08/14 07:06:14;;;;;;;5.40;4.18;;;22.70;81.40;;;;;;5032724;28;20437;-71
2023/08/14 07:08:39;;;;;;;6.10;3.97;;;22.70;81.40;;;;;;5034471;28;20021;-72
2023/08/14 07:11:05;;;;;;;8.68;4.53;;;22.90;81.20;;;;;;5035776;28;20030;-72
2023/08/14 07:13:30;;;;;;;7.03;4.70;;;23.00;80.40;;;;;;5015188;28;20394;-72
2023/08/14 07:15:56;;;;;;;7.72;4.78;;;23.20;80.30;;;;;;5015228;28;20100;-72
2023/08/14 07:18:22;;;;;;;10.02;5.20;;;23.30;79.50;;;;;;5032774;28;20180;-73
2023/08/14 07:20:48;;;;;;;7.63;4.82;;;23.50;78.90;;;;;;5032834;28;20045;-73
2023/08/14 07:23:32;;;;;;;13.07;5.80;;;23.70;78.50;;;;;;5032904;28;20065;-77
2023/08/14 07:25:59;;;;;;;6.93;4.55;;;23.90;77.10;;;;;;5032743;28;20160;-76
2023/08/14 07:28:25;;;;;;;15.13;4.20;;;24.20;76.80;;;;;;5032707;28;20381;-76
2023/08/14 07:30:51;;;;;;;9.30;4.80;;;24.30;75.80;;;;;;5032824;28;20025;-76
2023/08/14 07:33:16;;;;;;;7.05;4.25;;;24.50;75.40;;;;;;5014876;28;20029;-77
2023/08/14 07:35:42;;;;;;;10.10;4.55;;;24.60;74.70;;;;;;5032631;28;20032;-76
2023/08/14 07:38:08;;;;;;;6.68;4.00;;;24.80;75.00;;;;;;5032487;28;20037;-77
2023/08/14 07:40:34;;;;;;;5.72;3.92;;;24.80;74.20;;;;;;5032573;28;20040;-74
2023/08/14 07:43:00;;;;;;;8.32;3.63;;;24.90;73.90;;;;;;5032590;28;20033;-77
2023/08/14 07:45:25;;;;;;;6.50;3.17;;;25.00;73.50;;;;;;5032770;28;20025;-79
2023/08/14 07:47:51;;;;;;;4.43;3.42;;;25.10;72.90;;;;;;5032515;28;20029;-80
2023/08/14 07:50:16;;;;;;;5.80;3.63;;;25.20;73.10;;;;;;5032591;28;20470;-78
2023/08/14 07:52:42;;;;;;;3.85;3.45;;;25.20;72.20;;;;;;5032150;28;20022;-78
2023/08/14 07:55:08;;;;;;;4.05;3.17;;;25.30;71.70;;;;;;5032346;28;20029;-78
2023/08/14 07:57:33;;;;;;;6.45;3.63;;;25.30;70.50;;;;;;5014586;28;20025;-79
2023/08/14 07:59:59;;;;;;;7.55;3.85;;;25.40;70.90;;;;;;5032383;28;20071;-74
2023/08/14 08:02:24;;;;;;;4.38;3.33;;;25.40;70.10;;;;;;5032391;28;20031;-73
2023/08/14 08:04:50;;;;;;;6.43;3.20;;;25.50;70.50;;;;;;5031933;28;20045;-73
2023/08/14 08:07:16;;;;;;;4.80;3.30;;;25.50;70.50;;;;;;5032262;28;20022;-73
2023/08/14 08:09:41;;;;;;;7.15;3.28;;;25.60;69.80;;;;;;5032973;28;20353;-73
2023/08/14 08:12:08;;;;;;;7.03;3.33;;;25.70;69.40;;;;;;5035796;28;20216;-74
2023/08/14 08:14:35;;;;;;;3.28;2.97;;;25.80;69.20;;;;;;5035922;28;20108;-76
2023/08/14 08:17:01;;;;;;;5.60;3.15;;;25.90;69.20;;;;;;5036022;28;20044;-74
2023/08/14 08:19:26;;;;;;;3.85;3.35;;;26.00;68.00;;;;;;5036008;28;20037;-74
2023/08/14 08:21:52;;;;;;;9.52;3.60;;;26.10;67.50;;;;;;5035812;28;20083;-73
2023/08/14 08:24:18;;;;;;;6.32;3.40;;;26.20;68.30;;;;;;5018103;28;20029;-74
2023/08/14 08:26:44;;;;;;;3.90;3.00;;;26.30;66.10;;;;;;5035721;28;20045;-73
2023/08/14 08:29:10;;;;;;;5.18;3.35;;;26.30;66.10;;;;;;5035639;28;20061;-74
2023/08/14 08:31:35;;;;;;;4.65;3.30;;;26.40;65.70;;;;;;5035519;28;20025;-73
2023/08/14 08:34:01;;;;;;;4.93;3.25;;;26.40;65.70;;;;;;5035651;28;20040;-74
2023/08/14 08:36:26;;;;;;;4.15;3.40;;;26.40;64.70;;;;;;5035390;28;20101;-75
2023/08/14 08:38:52;;;;;;;3.53;2.88;;;26.50;64.80;;;;;;5033237;28;20057;-74
2023/08/14 08:41:36;;;;;;;6.88;3.30;;;26.60;64.40;;;;;;5026916;28;20259;-76
2023/08/14 08:44:23;;;;;;;3.63;3.30;;;26.70;64.80;;;;;;5026003;28;20514;-78
2023/08/14 08:46:56;;;;;;;4.28;2.70;;;26.80;62.50;;;;;;5023129;28;20037;-73
2023/08/14 08:49:23;;;;;;;4.45;2.88;;;26.80;60.70;;;;;;5015672;28;20024;-73
2023/08/14 08:51:50;;;;;;;5.45;3.05;;;26.80;61.50;;;;;;5015097;28;20053;-73
2023/08/14 08:54:16;;;;;;;4.72;2.70;;;26.90;62.10;;;;;;5015489;28;20382;-73
2023/08/14 08:56:42;;;;;;;3.90;2.83;;;27.00;61.20;;;;;;5015445;28;20022;-73
2023/08/14 08:59:13;;;;;;;5.13;2.90;;;27.10;60.80;;;;;;5014688;28;20643;-74
2023/08/14 09:01:41;;;;;;;4.90;3.10;;;27.10;60.40;;;;;;4997229;28;20530;-73
2023/08/14 09:04:06;;;;;;;4.38;3.03;;;27.20;61.90;;;;;;5014634;28;20030;-73
2023/08/14 09:06:32;;;;;;;4.85;2.90;;;27.30;61.40;;;;;;5014951;28;20040;-79
2023/08/14 09:08:58;;;;;;;6.35;2.72;;;27.40;60.20;;;;;;5015144;28;20045;-73
2023/08/14 09:11:25;;;;;;;4.80;2.58;;;27.50;59.10;;;;;;5015060;28;20026;-73
2023/08/14 09:13:51;;;;;;;4.97;3.03;;;27.60;58.60;;;;;;4997393;28;20092;-73
2023/08/14 09:16:17;;;;;;;5.55;3.15;;;27.70;58.00;;;;;;5014746;28;20414;-75
2023/08/14 09:18:43;;;;;;;3.65;2.80;;;27.70;56.00;;;;;;5014706;28;20110;-73
2023/08/14 09:21:09;;;;;;;2.92;2.53;;;27.80;56.70;;;;;;5013978;28;20022;-74
2023/08/14 09:23:37;;;;;;;3.30;2.53;;;27.90;56.10;;;;;;5014414;28;20106;-73
2023/08/14 09:26:03;;;;;;;5.60;3.00;;;28.00;55.50;;;;;;5014938;28;20426;-73
2023/08/14 09:28:29;;;;;;;4.00;3.00;;;28.10;55.50;;;;;;5015030;28;20033;-72
2023/08/14 09:31:08;;;;;;;5.13;2.50;;;28.10;55.40;;;;;;5014337;28;20026;-72
2023/08/14 09:33:35;;;;;;;3.47;2.65;;;28.30;55.00;;;;;;5013779;28;20041;-72
2023/08/14 09:36:01;;;;;;;4.65;2.75;;;28.40;53.00;;;;;;5013572;28;20462;-72
2023/08/14 09:38:27;;;;;;;3.50;2.65;;;28.60;53.60;;;;;;5013713;28;20290;-72
2023/08/14 09:40:57;;;;;;;5.53;2.75;;;28.70;52.60;;;;;;5013788;28;20018;-73
2023/08/14 09:43:23;;;;;;;5.07;2.75;;;28.80;50.00;;;;;;5014187;28;20453;-72
2023/08/14 09:45:50;;;;;;;3.22;2.60;;;28.90;50.70;;;;;;5013571;28;20109;-72
2023/08/14 09:48:16;;;;;;;3.65;2.60;;;29.00;50.90;;;;;;5014334;28;20516;-72
2023/08/14 09:50:53;;;;;;;4.20;2.85;;;29.10;49.30;;;;;;5014149;28;20022;-71
2023/08/14 09:53:19;;;;;;;4.43;2.58;;;29.30;49.20;;;;;;5014188;28;20338;-71
2023/08/14 09:55:45;;;;;;;5.25;2.70;;;29.30;49.20;;;;;;5013504;28;20093;-71
2023/08/14 09:58:10;;;;;;;5.60;2.88;;;29.40;48.90;;;;;;5013311;28;20026;-70
2023/08/14 10:00:38;;;;;;;5.00;2.88;;;29.60;48.50;;;;;;5013462;28;20074;-71
2023/08/14 10:03:07;;;;;;;6.82;2.88;;;29.80;47.40;;;;;;5012514;28;20018;-71
2023/08/14 10:05:33;;;;;;;4.65;2.67;;;30.00;45.70;;;;;;5006434;28;20100;-71
2023/08/14 10:08:00;;;;;;;3.90;2.80;;;30.10;45.90;;;;;;5004359;28;20033;-71
2023/08/14 10:10:30;;;;;;;6.65;2.90;;;30.30;46.40;;;;;;5002919;28;20023;-71
2023/08/14 10:12:57;;;;;;;2.47;2.17;;;30.50;43.70;;;;;;5002761;28;20562;-71
2023/08/14 10:15:31;;;;;;;4.68;2.55;;;30.70;43.80;;;;;;5004253;28;20045;-71
2023/08/14 10:18:01;;;;;;;3.63;2.67;;;31.00;46.30;;;;;;5004480;28;20056;-71
2023/08/14 10:20:34;;;;;;;3.20;2.30;;;31.30;43.70;;;;;;5002898;28;20027;-72
2023/08/14 10:23:01;;;;;;;4.10;2.90;;;31.40;43.60;;;;;;5002807;28;20050;-72
2023/08/14 10:25:28;;;;;;;4.53;2.60;;;31.50;43.80;;;;;;5004213;28;20049;-71
2023/08/14 10:27:54;;;;;;;3.72;2.75;;;31.40;43.00;;;;;;5003511;28;20030;-70
2023/08/14 10:30:22;;;;;;;4.22;2.45;;;31.40;43.10;;;;;;5002606;28;20018;-72
2023/08/14 10:32:49;;;;;;;3.83;2.30;;;31.40;43.20;;;;;;5002188;28;20046;-70
2023/08/14 10:35:15;;;;;;;5.05;2.28;;;31.40;43.10;;;;;;5002774;28;20033;-71
2023/08/14 10:37:48;;;;;;;4.40;2.70;;;31.50;42.40;;;;;;4986565;28;20390;-70
2023/08/14 10:40:14;;;;;;;5.07;2.95;;;31.60;42.90;;;;;;5003546;28;20034;-72
2023/08/14 10:42:56;;;;;;;4.40;2.78;;;31.30;40.50;;;;;;4997041;28;20025;-73
2023/08/14 10:45:26;;;;;;;5.35;2.67;;;31.10;41.10;;;;;;4979342;28;20514;-72
2023/08/14 10:47:57;;;;;;;3.28;2.40;;;30.90;41.30;;;;;;4976156;28;20026;-73
2023/08/14 10:50:24;;;;;;;3.67;2.67;;;30.90;41.70;;;;;;4994295;28;20479;-73
2023/08/14 10:52:55;;;;;;;3.78;2.47;;;31.00;43.50;;;;;;4976016;28;20108;-73
2023/08/14 10:55:41;;;;;;;4.93;2.97;;;31.30;43.90;;;;;;4976333;28;20022;-72
2023/08/14 10:58:29;;;;;;;3.33;2.58;;;31.70;43.60;;;;;;4993801;28;20162;-71
2023/08/14 11:00:57;;;;;;;4.97;2.40;;;32.10;41.40;;;;;;4993456;28;20014;-71
2023/08/14 11:03:23;;;;;;;3.80;2.60;;;32.30;40.80;;;;;;4993470;28;20427;-71
2023/08/14 11:05:49;;;;;;;3.75;2.50;;;32.50;40.20;;;;;;5009016;28;20124;-73
2023/08/14 11:08:15;;;;;;;4.10;2.75;;;32.70;37.90;;;;;;5013083;28;20447;-71
2023/08/14 11:10:42;;;;;;;4.07;2.67;;;32.70;37.20;;;;;;5012755;28;20112;-71
2023/08/14 11:13:09;;;;;;;4.68;2.70;;;32.90;36.40;;;;;;5012732;28;20108;-72
2023/08/14 11:15:37;;;;;;;3.28;2.97;;;33.00;37.00;;;;;;5013360;28;20382;-71
2023/08/14 11:18:06;;;;;;;5.07;2.53;;;32.80;37.00;;;;;;5013009;28;20089;-71
2023/08/14 11:20:32;;;;;;;5.47;2.80;;;32.70;37.30;;;;;;5013090;28;20026;-73
2023/08/14 11:23:01;;;;;;;5.38;2.47;;;32.40;38.20;;;;;;5013070;28;20022;-71
2023/08/14 11:25:26;;;;;;;5.57;2.50;;;32.00;39.00;;;;;;5012821;28;20026;-72
2023/08/14 11:27:54;;;;;;;2.95;2.58;;;31.60;38.60;;;;;;5013027;28;20041;-71
2023/08/14 11:30:22;;;;;;;3.85;2.50;;;31.20;39.70;;;;;;5012445;28;20109;-71
2023/08/14 11:32:49;;;;;;;3.42;2.50;;;30.90;40.10;;;;;;5012789;28;20439;-72
2023/08/14 11:35:16;;;;;;;5.22;2.58;;;30.50;41.10;;;;;;5012740;28;20033;-72
2023/08/14 11:37:42;;;;;;;7.35;2.58;;;30.30;41.90;;;;;;5012809;28;20494;-72
2023/08/14 11:40:10;;;;;;;3.10;2.35;;;30.00;42.00;;;;;;5012879;28;20113;-72
2023/08/14 11:42:36;;;;;;;4.88;2.80;;;29.80;42.10;;;;;;5012668;28;20049;-73
2023/08/14 11:45:04;;;;;;;5.47;2.90;;;29.60;45.30;;;;;;5015840;28;20081;-72
2023/08/14 11:47:47;;;;;;;4.43;3.15;;;29.30;46.90;;;;;;5016771;28;20034;-74
2023/08/14 11:50:13;;;;;;;5.22;3.10;;;29.00;47.90;;;;;;5016716;28;20050;-75
2023/08/14 11:52:38;;;;;;;5.78;2.33;;;27.80;49.40;;;;;;5016601;28;20113;-75
2023/08/14 11:55:04;;;;;;;5.40;2.25;;;26.40;51.90;;;;;;5016575;28;20109;-78
2023/08/14 11:57:31;;;;;;;7.60;2.60;;;25.70;53.60;;;;;;5016607;28;20478;-72
2023/08/14 12:00:00;;;;;;;6.25;2.03;;;25.10;55.80;;;;;;5016499;28;20038;-80
2023/08/14 12:02:27;;;;;;;4.07;1.63;;;24.50;59.80;;;;;;5016640;28;20029;-81
2023/08/14 12:05:00;;;;;;;2.85;1.55;;;24.20;62.90;;;;;;4998902;28;20041;-81
2023/08/14 12:07:27;;;;;;;2.72;1.70;;;24.00;62.50;;;;;;5016716;28;20489;-80
2023/08/14 12:09:57;;;;;;;4.20;1.50;;;23.80;64.80;;;;;;5016608;28;20026;-80
2023/08/14 12:12:24;;;;;;;3.40;2.10;;;23.70;65.70;;;;;;5016494;28;20036;-81
2023/08/14 12:14:51;;;;;;;3.85;2.05;;;23.80;65.10;;;;;;5016543;28;20085;-77
2023/08/14 12:17:18;;;;;;;6.60;2.55;;;23.70;67.20;;;;;;5016311;28;20093;-77
2023/08/14 12:19:57;;;;;;;8.60;2.28;;;23.70;66.50;;;;;;5016591;28;20033;-74
2023/08/14 12:22:24;;;;;;;4.78;2.65;;;23.50;64.10;;;;;;5021379;28;20021;-73
2023/08/14 12:24:51;;;;;;;7.00;2.70;;;23.20;68.20;;;;;;5016072;28;20021;-72
2023/08/14 12:27:22;;;;;;;6.53;3.28;;;22.90;71.20;;;;;;5016520;28;20037;-74
2023/08/14 12:29:49;;;;;;;10.35;3.20;;;22.90;73.40;;;;;;4998561;28;20378;-74
2023/08/14 12:32:15;;;;;;;6.07;2.85;;;23.00;75.00;;;;;;5016080;28;20330;-79
2023/08/14 12:34:41;;;;;;;15.43;4.90;;;23.10;75.90;;;;;;5016387;28;20053;-72
2023/08/14 12:37:07;;;;;;;8.10;3.35;;;23.10;75.70;;;;;;5016308;28;20014;-72
2023/08/14 12:39:33;;;;;;;7.10;2.83;;;23.00;74.30;;;;;;5016098;28;20462;-71
2023/08/14 12:42:00;;;;;;;7.97;3.20;;;22.90;73.40;;;;;;4998790;28;20038;-74
2023/08/14 12:44:26;;;;;;;6.80;2.53;;;22.90;73.50;;;;;;5015861;28;20026;-72